createdAt,value
2023-03-30T00:02:21.424Z,98936.41
2023-03-30T00:05:06.963Z,98940.31
2023-03-30T00:07:42.242Z,98944.84
2023-03-30T00:10:16.904Z,98940.06
2023-03-30T00:12:56.448Z,98931.63
2023-03-30T00:15:28.273Z,98932.81
2023-03-30T00:17:59.810Z,98929.53
2023-03-30T00:20:33.281Z,98934.47
2023-03-30T00:23:08.765Z,98924.47
2023-03-30T00:25:45.040Z,98904.59
2023-03-30T00:28:15.424Z,98926.91
2023-03-30T00:30:44.010Z,98923.03
2023-03-30T00:33:16.941Z,98914.91
2023-03-30T00:35:48.207Z,98910.78
2023-03-30T00:38:17.194Z,98909.75
2023-03-30T00:40:53.357Z,98914.16
2023-03-30T00:43:23.479Z,98907.44
2023-03-30T00:45:53.655Z,98884.06
2023-03-30T00:48:34.369Z,98903.31
2023-03-30T00:51:18.804Z,98897.28
2023-03-30T00:53:52.001Z,98899.44
2023-03-30T00:56:27.552Z,98895.19
2023-03-30T00:59:00.388Z,98876.28
2023-03-30T01:04:25.478Z,98880.78
2023-03-30T01:07:00.724Z,98877.81
2023-03-30T01:09:32.949Z,98875.84
2023-03-30T01:12:08.257Z,98877.47
2023-03-30T01:14:48.536Z,98872.06
2023-03-30T01:18:03.986Z,98871.66
2023-03-30T01:24:19.321Z,98872.19
2023-03-30T01:27:02.255Z,98879.66
2023-03-30T01:29:48.055Z,98875.53
2023-03-30T01:32:31.050Z,98874.72
2023-03-30T01:35:49.940Z,98878.00
2023-03-30T01:38:54.729Z,98877.72
2023-03-30T01:41:59.136Z,98863.91
2023-03-30T01:45:05.476Z,98866.06
2023-03-30T01:48:20.225Z,98854.19
2023-03-30T01:51:01.529Z,98852.25
2023-03-30T01:53:46.274Z,98861.97
2023-03-30T01:56:43.151Z,98864.59
2023-03-30T01:59:19.586Z,98847.94
2023-03-30T02:02:09.466Z,98864.88
2023-03-30T02:04:44.213Z,98866.31
2023-03-30T02:07:23.675Z,98858.91
2023-03-30T02:09:58.621Z,98858.94
2023-03-30T02:12:44.824Z,98825.72
2023-03-30T02:15:19.941Z,98848.00
2023-03-30T02:17:51.267Z,98863.69
2023-03-30T02:20:22.022Z,98859.00
2023-03-30T02:22:56.548Z,98860.56
2023-03-30T02:25:30.745Z,98865.09
2023-03-30T02:30:45.361Z,98865.81
2023-03-30T02:33:47.613Z,98864.06
2023-03-30T02:36:40.133Z,98862.88
2023-03-30T02:39:31.315Z,98851.16
2023-03-30T02:42:52.150Z,98857.16
2023-03-30T02:45:55.143Z,98859.78
2023-03-30T02:48:47.861Z,98858.19
2023-03-30T02:51:52.229Z,98850.28
2023-03-30T02:54:46.006Z,98852.16
2023-03-30T02:58:30.931Z,98821.94
2023-03-30T03:01:39.354Z,98845.16
2023-03-30T03:04:32.050Z,98842.19
2023-03-30T03:07:18.460Z,98837.75
2023-03-30T03:09:52.200Z,98835.28
2023-03-30T03:12:27.857Z,98829.78
2023-03-30T03:15:04.397Z,98840.81
2023-03-30T03:17:43.443Z,98834.59
2023-03-30T03:20:18.404Z,98833.72
2023-03-30T03:22:48.435Z,98835.28
2023-03-30T03:25:19.417Z,98818.22
2023-03-30T03:27:59.485Z,98798.56
2023-03-30T03:30:34.976Z,98819.97
2023-03-30T03:33:13.515Z,98817.16
2023-03-30T03:36:03.089Z,98816.81
2023-03-30T03:38:37.169Z,98807.78
2023-03-30T03:41:13.446Z,98807.97
2023-03-30T03:46:35.199Z,98811.00
2023-03-30T03:49:06.663Z,98818.75
2023-03-30T03:51:38.318Z,98815.97
2023-03-30T03:54:09.763Z,98819.84
2023-03-30T03:59:24.534Z,98810.16
2023-03-30T04:02:07.817Z,98812.78
2023-03-30T04:04:39.056Z,98805.41
2023-03-30T04:07:09.960Z,98806.28
2023-03-30T04:09:39.536Z,98812.31
2023-03-30T04:12:25.116Z,98801.59
2023-03-30T04:15:34.566Z,98800.19
2023-03-30T04:18:39.248Z,98801.53
2023-03-30T04:21:51.692Z,98799.13
2023-03-30T04:24:55.595Z,98807.81
2023-03-30T04:27:50.443Z,98810.28
2023-03-30T04:30:46.268Z,98820.50
2023-03-30T04:33:47.483Z,98809.94
2023-03-30T04:36:40.878Z,98809.97
2023-03-30T04:39:52.960Z,98789.94
2023-03-30T04:42:53.290Z,98799.28
2023-03-30T04:45:52.390Z,98799.78
2023-03-30T04:48:38.817Z,98809.16
2023-03-30T04:51:40.588Z,98801.47
2023-03-30T04:54:33.232Z,98809.28
2023-03-30T04:57:45.712Z,98809.75
2023-03-30T05:00:44.454Z,98804.50
2023-03-30T05:03:52.324Z,98806.38
2023-03-30T05:06:54.019Z,98810.28
2023-03-30T05:09:48.109Z,98807.50
2023-03-30T05:12:47.141Z,98814.94
2023-03-30T05:15:49.134Z,98819.09
2023-03-30T05:18:39.957Z,98739.47
2023-03-30T05:21:30.024Z,98816.22
2023-03-30T05:24:22.886Z,98819.34
2023-03-30T05:27:07.285Z,98831.16
2023-03-30T05:30:01.829Z,98824.81
2023-03-30T05:33:01.434Z,98830.63
2023-03-30T05:35:54.121Z,98837.72
2023-03-30T05:39:04.683Z,98835.50
2023-03-30T05:42:03.618Z,98830.97
2023-03-30T05:44:56.250Z,98842.44
2023-03-30T05:48:03.830Z,98857.09
2023-03-30T05:50:52.369Z,98849.19
2023-03-30T05:56:44.227Z,98833.38
2023-03-30T05:59:44.936Z,98832.97
2023-03-30T06:02:44.597Z,98825.63
2023-03-30T06:05:22.885Z,98844.66
2023-03-30T06:08:08.890Z,98850.31
2023-03-30T06:10:44.131Z,98835.38
2023-03-30T06:13:15.734Z,98850.94
2023-03-30T06:15:55.213Z,98847.53
2023-03-30T06:18:30.066Z,98843.59
2023-03-30T06:21:14.106Z,98841.78
2023-03-30T06:24:03.563Z,98838.50
2023-03-30T06:26:35.635Z,98830.13
2023-03-30T06:29:15.610Z,98833.63
2023-03-30T06:31:47.897Z,98833.69
2023-03-30T06:34:52.456Z,98821.06
2023-03-30T06:37:40.116Z,98820.84
2023-03-30T06:40:17.841Z,98820.09
2023-03-30T06:42:51.548Z,98809.91
2023-03-30T06:45:45.476Z,98808.56
2023-03-30T06:48:16.225Z,98807.28
2023-03-30T06:50:47.685Z,98806.25
2023-03-30T06:53:28.322Z,98817.44
2023-03-30T06:56:02.189Z,98826.88
2023-03-30T06:58:34.935Z,98833.53
2023-03-30T07:01:20.284Z,98843.16
2023-03-30T07:04:20.877Z,98848.31
2023-03-30T07:07:14.147Z,98852.81
2023-03-30T07:09:46.873Z,98871.56
2023-03-30T07:12:21.725Z,98858.03
2023-03-30T07:14:56.270Z,98862.09
2023-03-30T07:17:31.019Z,98854.50
2023-03-30T07:20:04.771Z,98850.25
2023-03-30T07:22:44.929Z,98856.16
2023-03-30T07:25:19.275Z,98851.75
2023-03-30T07:28:00.983Z,98841.59
2023-03-30T07:30:31.548Z,98861.53
2023-03-30T07:33:11.933Z,98841.00
2023-03-30T07:35:52.698Z,98841.22
2023-03-30T07:38:32.497Z,98856.91
2023-03-30T07:41:01.179Z,98852.50
2023-03-30T07:43:37.198Z,98859.91
2023-03-30T07:46:10.683Z,98863.28
2023-03-30T07:48:43.290Z,98863.72
2023-03-30T07:51:16.959Z,98867.41
2023-03-30T07:53:57.232Z,98852.09
2023-03-30T07:59:20.083Z,98855.78
2023-03-30T08:01:52.282Z,98840.72
2023-03-30T08:04:50.911Z,98856.34
2023-03-30T08:07:31.095Z,98853.16
2023-03-30T08:10:23.742Z,98852.53
2023-03-30T08:12:56.107Z,98851.81
2023-03-30T08:15:27.779Z,98848.72
2023-03-30T08:18:03.768Z,98821.72
2023-03-30T08:20:46.027Z,98837.63
2023-03-30T08:23:17.363Z,98852.09
2023-03-30T08:25:53.767Z,98841.72
2023-03-30T08:28:29.770Z,98832.56
2023-03-30T08:31:16.247Z,98832.41
2023-03-30T08:33:50.918Z,98841.00
2023-03-30T08:36:26.205Z,98837.91
2023-03-30T08:39:12.729Z,98841.75
2023-03-30T08:42:03.938Z,98848.91
2023-03-30T08:44:42.998Z,98846.03
2023-03-30T08:47:18.220Z,98851.88
2023-03-30T08:50:38.968Z,98834.47
2023-03-30T08:53:12.363Z,98853.41
2023-03-30T08:55:53.458Z,98837.72
2023-03-30T08:59:03.787Z,98837.56
2023-03-30T09:02:03.274Z,98842.75
2023-03-30T09:04:57.915Z,98827.38
2023-03-30T09:08:10.803Z,98836.69
2023-03-30T09:10:44.938Z,98843.28
2023-03-30T09:13:22.101Z,98852.84
2023-03-30T09:16:19.515Z,98854.00
2023-03-30T09:18:58.800Z,98851.56
2023-03-30T09:21:32.727Z,98824.81
2023-03-30T09:24:09.607Z,98847.22
2023-03-30T09:27:02.237Z,98851.53
2023-03-30T09:29:43.959Z,98842.22
2023-03-30T09:32:33.721Z,98847.34
2023-03-30T09:35:33.651Z,98836.25
2023-03-30T09:38:15.112Z,98841.63
2023-03-30T09:41:30.688Z,98834.38
2023-03-30T09:44:09.247Z,98828.13
2023-03-30T09:46:40.541Z,98824.78
2023-03-30T09:49:19.306Z,98813.22
2023-03-30T09:52:09.921Z,98817.06
2023-03-30T09:54:41.914Z,98806.56
2023-03-30T09:57:38.611Z,98813.66
2023-03-30T10:00:34.350Z,98785.88
2023-03-30T10:03:10.342Z,98818.78
2023-03-30T10:05:41.508Z,98803.88
2023-03-30T10:08:25.024Z,98803.13
2023-03-30T10:10:59.694Z,98812.63
2023-03-30T10:13:40.449Z,98806.16
2023-03-30T10:16:13.888Z,98814.06
2023-03-30T10:18:48.902Z,98808.28
2023-03-30T10:21:30.901Z,98822.47
2023-03-30T10:24:46.822Z,98817.25
2023-03-30T10:27:16.560Z,98809.81
2023-03-30T10:30:12.929Z,98794.19
2023-03-30T10:32:51.132Z,98801.94
2023-03-30T10:35:23.612Z,98816.97
2023-03-30T10:37:58.802Z,98814.88
2023-03-30T10:40:48.097Z,98811.47
2023-03-30T10:43:27.562Z,98802.53
2023-03-30T10:46:18.713Z,98798.63
2023-03-30T10:49:15.115Z,98793.97
2023-03-30T10:52:28.506Z,98803.34
2023-03-30T10:55:14.537Z,98796.72
2023-03-30T10:58:29.958Z,98789.06
2023-03-30T11:01:23.398Z,98790.22
2023-03-30T11:04:06.611Z,98790.66
2023-03-30T11:06:55.616Z,98794.25
2023-03-30T11:09:45.542Z,98755.41
2023-03-30T11:12:22.888Z,98791.28
2023-03-30T11:15:00.587Z,98784.16
2023-03-30T11:17:51.497Z,98790.38
2023-03-30T11:20:34.158Z,98782.28
2023-03-30T11:23:20.893Z,98785.47
2023-03-30T11:26:09.876Z,98781.19
2023-03-30T11:29:32.353Z,98777.91
2023-03-30T11:32:36.805Z,98781.31
2023-03-30T11:35:48.757Z,98771.38
2023-03-30T11:38:55.892Z,98770.81
2023-03-30T11:42:18.481Z,98768.38
2023-03-30T11:44:48.757Z,98763.53
2023-03-30T11:47:55.230Z,98759.22
2023-03-30T11:51:28.712Z,98754.00
2023-03-30T11:54:39.062Z,98752.84
2023-03-30T11:57:28.354Z,98746.00
2023-03-30T12:00:28.922Z,98725.00
2023-03-30T12:03:26.069Z,98730.56
2023-03-30T12:06:32.189Z,98728.78
2023-03-30T12:09:38.840Z,98730.41
2023-03-30T12:12:21.432Z,98722.91
2023-03-30T12:15:01.722Z,98716.97
2023-03-30T12:18:00.809Z,98715.72
2023-03-30T12:21:04.729Z,98703.63
2023-03-30T12:23:58.994Z,98705.38
2023-03-30T12:26:39.070Z,98682.00
2023-03-30T12:32:02.031Z,98692.38
2023-03-30T12:34:39.333Z,98701.03
2023-03-30T12:37:33.789Z,98692.38
2023-03-30T12:40:33.586Z,98694.38
2023-03-30T12:43:34.156Z,98682.25
2023-03-30T12:46:28.652Z,98677.53
2023-03-30T12:53:11.101Z,98657.75
2023-03-30T12:55:44.266Z,98665.28
2023-03-30T12:58:52.435Z,98669.19
2023-03-30T13:02:09.928Z,98664.88
2023-03-30T13:04:49.423Z,98656.56
2023-03-30T13:07:31.134Z,98659.97
2023-03-30T13:10:40.747Z,98659.63
2023-03-30T13:13:20.320Z,98657.41
2023-03-30T13:16:00.259Z,98658.09
2023-03-30T13:18:42.418Z,98641.44
2023-03-30T13:21:28.966Z,98637.94
2023-03-30T13:24:10.306Z,98637.66
2023-03-30T13:26:51.930Z,98629.44
2023-03-30T13:29:20.532Z,98628.47
2023-03-30T13:32:24.259Z,98617.63
2023-03-30T13:38:37.822Z,98607.03
2023-03-30T13:41:41.426Z,98605.41
2023-03-30T13:44:59.436Z,98611.59
2023-03-30T13:47:28.369Z,98601.69
2023-03-30T13:50:29.868Z,98577.94
2023-03-30T13:53:02.723Z,98586.31
2023-03-30T13:55:47.693Z,98592.34
2023-03-30T13:58:35.642Z,98585.50
2023-03-30T14:01:25.741Z,98584.53
2023-03-30T14:04:01.064Z,98584.53
2023-03-30T14:06:44.728Z,98584.53
2023-03-30T14:09:16.046Z,98581.16
2023-03-30T14:11:56.387Z,98583.09
2023-03-30T14:14:45.162Z,98581.75
2023-03-30T14:17:28.384Z,98583.94
2023-03-30T14:20:25.811Z,98576.75
2023-03-30T14:23:03.671Z,98570.88
2023-03-30T14:25:43.544Z,98564.19
2023-03-30T14:28:33.793Z,98557.50
2023-03-30T14:31:17.342Z,98540.47
2023-03-30T14:33:49.310Z,98537.91
2023-03-30T14:36:23.770Z,98531.03
2023-03-30T14:39:01.675Z,98523.53
2023-03-30T14:41:41.239Z,98545.47
2023-03-30T14:44:16.076Z,98541.88
2023-03-30T14:46:51.900Z,98530.94
2023-03-30T14:49:43.523Z,98523.44
2023-03-30T14:52:30.817Z,98524.41
2023-03-30T14:55:10.517Z,98519.34
2023-03-30T14:57:50.347Z,98519.84
2023-03-30T15:00:26.034Z,98517.56
2023-03-30T15:03:26.711Z,98493.56
2023-03-30T15:06:10.203Z,98513.97
2023-03-30T15:08:41.243Z,98514.94
2023-03-30T15:11:24.373Z,98509.25
2023-03-30T15:14:22.743Z,98516.75
2023-03-30T15:17:13.107Z,98505.00
2023-03-30T15:19:50.561Z,98515.63
2023-03-30T15:22:42.801Z,98495.03
2023-03-30T15:25:20.386Z,98500.13
2023-03-30T15:27:56.830Z,98488.63
2023-03-30T15:30:48.705Z,98501.25
2023-03-30T15:33:25.282Z,98507.28
2023-03-30T15:35:56.793Z,98497.00
2023-03-30T15:38:50.258Z,98496.84
2023-03-30T15:42:03.907Z,98487.53
2023-03-30T15:44:44.840Z,98485.41
2023-03-30T15:47:21.785Z,98476.44
2023-03-30T15:49:57.346Z,98465.84
2023-03-30T15:52:36.015Z,98443.63
2023-03-30T15:55:30.876Z,98458.00
2023-03-30T15:58:06.283Z,98456.88
2023-03-30T16:00:41.259Z,98459.00
2023-03-30T16:04:03.937Z,98468.78
2023-03-30T16:06:36.556Z,98459.31
2023-03-30T16:09:09.153Z,98436.13
2023-03-30T16:11:41.193Z,98444.16
2023-03-30T16:14:13.482Z,98439.41
2023-03-30T16:16:46.496Z,98439.25
2023-03-30T16:19:27.513Z,98429.28
2023-03-30T16:22:03.280Z,98448.22
2023-03-30T16:24:42.382Z,98441.03
2023-03-30T16:27:14.182Z,98438.44
2023-03-30T16:29:45.628Z,98439.06
2023-03-30T16:32:18.775Z,98421.25
2023-03-30T16:34:51.190Z,98422.88
2023-03-30T16:37:24.804Z,98426.94
2023-03-30T16:39:53.552Z,98420.75
2023-03-30T16:42:30.286Z,98428.09
2023-03-30T16:45:15.337Z,98424.66
2023-03-30T16:47:44.233Z,98420.75
2023-03-30T16:50:54.848Z,98419.75
2023-03-30T16:53:33.065Z,98392.84
2023-03-30T16:56:06.523Z,98405.97
2023-03-30T16:58:39.953Z,98424.25
2023-03-30T17:01:16.028Z,98417.41
2023-03-30T17:03:46.261Z,98405.06
2023-03-30T17:06:17.043Z,98430.78
2023-03-30T17:08:47.882Z,98428.31
2023-03-30T17:11:19.465Z,98453.75
2023-03-30T17:13:49.963Z,98452.44
2023-03-30T17:16:28.393Z,98457.00
2023-03-30T17:19:01.310Z,98455.88
2023-03-30T17:21:34.911Z,98440.50
2023-03-30T17:24:11.823Z,98416.69
2023-03-30T17:26:40.644Z,98457.97
2023-03-30T17:29:20.489Z,98464.81
2023-03-30T17:31:54.295Z,98465.44
2023-03-30T17:34:24.361Z,98470.97
2023-03-30T17:37:05.509Z,98459.00
2023-03-30T17:39:38.269Z,98453.75
2023-03-30T17:42:10.841Z,98476.31
2023-03-30T17:44:54.855Z,98476.31
2023-03-30T17:47:30.563Z,98483.47
2023-03-30T17:50:02.574Z,98478.41
2023-03-30T17:52:32.172Z,98480.84
2023-03-30T17:55:06.748Z,98486.41
2023-03-30T17:57:41.869Z,98475.75
2023-03-30T18:00:49.924Z,98495.22
2023-03-30T18:03:30.978Z,98492.44
2023-03-30T18:06:14.029Z,98495.53
2023-03-30T18:08:57.339Z,98442.34
2023-03-30T18:11:31.022Z,98496.03
2023-03-30T18:14:07.744Z,98492.44
2023-03-30T18:16:50.022Z,98479.41
2023-03-30T18:19:29.223Z,98474.50
2023-03-30T18:21:59.588Z,98476.75
2023-03-30T18:24:33.972Z,98498.06
2023-03-30T18:27:06.849Z,98505.75
2023-03-30T18:29:45.734Z,98468.19
2023-03-30T18:32:16.790Z,98515.41
2023-03-30T18:34:48.331Z,98509.38
2023-03-30T18:37:19.422Z,98502.03
2023-03-30T18:39:53.053Z,98512.16
2023-03-30T18:42:24.304Z,98503.53
2023-03-30T18:45:03.019Z,98510.09
2023-03-30T18:47:36.213Z,98517.28
2023-03-30T18:50:26.916Z,98484.06
2023-03-30T18:52:57.656Z,98519.22
2023-03-30T18:55:37.784Z,98511.94
2023-03-30T18:58:20.114Z,98508.66
2023-03-30T19:00:59.400Z,98519.44
2023-03-30T19:03:33.923Z,98515.31
2023-03-30T19:06:05.304Z,98516.34
2023-03-30T19:08:35.837Z,98507.72
2023-03-30T19:11:09.926Z,98510.16
2023-03-30T19:13:38.069Z,98518.09
2023-03-30T19:16:10.882Z,98518.09
2023-03-30T19:18:47.449Z,98520.03
2023-03-30T19:21:21.055Z,98514.91
2023-03-30T19:23:51.643Z,98504.66
2023-03-30T19:26:28.590Z,98509.38
2023-03-30T19:31:55.010Z,98525.00
2023-03-30T19:37:08.882Z,98519.66
2023-03-30T19:39:45.938Z,98516.69
2023-03-30T19:42:19.762Z,98517.13
2023-03-30T19:44:50.679Z,98527.19
2023-03-30T19:47:23.679Z,98539.84
2023-03-30T19:50:03.365Z,98535.06
2023-03-30T19:52:36.355Z,98533.53
2023-03-30T19:55:09.120Z,98530.91
2023-03-30T19:57:40.319Z,98527.72
2023-03-30T20:00:15.762Z,98535.59
2023-03-30T20:02:53.487Z,98541.25
2023-03-30T20:05:24.302Z,98554.22
2023-03-30T20:07:56.032Z,98535.13
2023-03-30T20:10:28.222Z,98540.50
2023-03-30T20:13:03.379Z,98539.72
2023-03-30T20:15:49.585Z,98540.44
2023-03-30T20:21:18.175Z,98544.44
2023-03-30T20:23:49.877Z,98547.13
2023-03-30T20:26:23.387Z,98545.41
2023-03-30T20:29:03.737Z,98538.34
2023-03-30T20:31:39.918Z,98543.44
2023-03-30T20:34:15.502Z,98521.72
2023-03-30T20:36:52.404Z,98543.44
2023-03-30T20:39:27.575Z,98540.34
2023-03-30T20:42:00.852Z,98547.34
2023-03-30T20:44:39.643Z,98532.63
2023-03-30T20:47:11.037Z,98542.56
2023-03-30T20:49:43.737Z,98543.16
2023-03-30T20:52:22.834Z,98548.00
2023-03-30T20:54:53.527Z,98550.41
2023-03-30T20:57:24.527Z,98538.31
2023-03-30T21:00:01.416Z,98533.50
2023-03-30T21:05:17.684Z,98535.44
2023-03-30T21:07:52.140Z,98544.88
2023-03-30T21:10:20.378Z,98544.88
2023-03-30T21:12:51.441Z,98544.69
2023-03-30T21:15:30.353Z,98533.81
2023-03-30T21:18:07.813Z,98549.59
2023-03-30T21:20:43.920Z,98539.03
2023-03-30T21:23:29.199Z,98550.91
2023-03-30T21:26:06.214Z,98557.97
2023-03-30T21:28:45.023Z,98561.75
2023-03-30T21:31:24.692Z,98554.06
2023-03-30T21:34:01.518Z,98557.34
2023-03-30T21:36:35.527Z,98556.50
2023-03-30T21:39:17.228Z,98561.13
2023-03-30T21:41:54.023Z,98548.00
2023-03-30T21:44:22.173Z,98535.88
2023-03-30T21:46:53.696Z,98544.06
2023-03-30T21:49:23.783Z,98552.41
2023-03-30T21:51:54.509Z,98561.03
2023-03-30T21:54:41.533Z,98558.59
2023-03-30T21:57:15.695Z,98550.28
2023-03-30T21:59:49.608Z,98530.41
2023-03-30T22:02:20.738Z,98552.03
2023-03-30T22:04:52.787Z,98554.19
2023-03-30T22:07:21.750Z,98550.09
2023-03-30T22:09:55.105Z,98546.50
2023-03-30T22:12:25.922Z,98555.31
2023-03-30T22:14:55.240Z,98547.94
2023-03-30T22:17:43.756Z,98549.78
2023-03-30T22:20:28.312Z,98546.09
2023-03-30T22:22:59.313Z,98551.41
2023-03-30T22:28:24.313Z,98549.78
2023-03-30T22:31:08.264Z,98542.41
2023-03-30T22:33:36.562Z,98529.59
2023-03-30T22:36:33.572Z,98548.66
2023-03-30T22:39:10.696Z,98547.13
2023-03-30T22:41:41.915Z,98534.00
2023-03-30T22:44:13.041Z,98513.88
2023-03-30T22:46:46.966Z,98540.56
2023-03-30T22:49:26.901Z,98528.47
2023-03-30T22:52:08.032Z,98526.66
2023-03-30T22:54:47.838Z,98538.72
2023-03-30T22:57:19.024Z,98475.66
2023-03-30T22:59:49.604Z,98533.00
2023-03-30T23:05:06.049Z,98483.84
2023-03-30T23:07:40.228Z,98518.28
2023-03-30T23:10:13.379Z,98525.50
2023-03-30T23:12:59.594Z,98520.91
2023-03-30T23:15:30.342Z,98513.88
2023-03-30T23:18:01.108Z,98508.09
2023-03-30T23:20:31.141Z,98507.69
2023-03-30T23:23:04.422Z,98502.19
2023-03-30T23:25:41.929Z,98508.41
2023-03-30T23:28:13.660Z,98496.53
2023-03-30T23:30:44.861Z,98500.25
2023-03-30T23:36:00.642Z,98497.09
2023-03-30T23:38:33.181Z,98495.94
2023-03-30T23:41:04.601Z,98492.06
2023-03-30T23:43:52.224Z,98491.56
2023-03-30T23:46:29.941Z,98490.63
2023-03-30T23:49:06.402Z,98474.84
2023-03-30T23:51:40.003Z,98482.31
2023-03-30T23:54:10.738Z,98490.44
2023-03-30T23:56:50.531Z,98488.88
2023-03-30T23:59:24.512Z,98486.84
